Time;durP1;ratioP1;P1;durP2;ratioP2;P2;SDS_P1;SDS_P2;PMS_P1;PMS_P2;Temp;Humidity;BMP_temperature;BMP_pressure;BME280_temperature;BME280_humidity;BME280_pressure;Samples;Min_cycle;Max_cycle;Signal;HPM_P1;HPM_P2
2022/04/14 09:42:28;;;;;;;11.37;6.60;;;;;;;19.83;28.15;99861.88;5060507;28;20792;-89
2022/04/14 09:44:54;;;;;;;9.73;6.37;;;;;;;17.76;27.89;99486.69;5044534;28;20212;-88
2022/04/14 09:47:39;;;;;;;10.23;6.70;;;;;;;18.44;28.88;99712.44;5063643;28;20211;-89
2022/04/14 09:50:07;;;;;;;9.30;6.60;;;;;;;19.91;28.80;99897.97;5056148;28;20592;-89
2022/04/14 09:52:33;;;;;;;9.90;6.10;;;;;;;19.30;28.88;99791.75;5043489;28;20192;-88
2022/04/14 09:55:09;;;;;;;9.23;6.67;;;;;;;19.42;29.06;99807.34;5057240;28;20185;-88
2022/04/14 09:57:34;;;;;;;13.77;7.47;;;;;;;17.86;29.65;99536.34;5057736;28;20223;-90
2022/04/14 10:00:00;;;;;;;17.17;8.00;;;;;;;18.01;30.01;99593.84;5073603;28;20173;-90
2022/04/14 10:02:29;;;;;;;14.37;7.40;;;;;;;17.68;29.74;99496.81;5036989;28;20219;-88
2022/04/14 10:04:59;;;;;;;15.47;7.27;;;;;;;16.71;29.36;99261.41;5016420;28;20289;-89
2022/04/14 10:07:28;;;;;;;13.80;6.93;;;;;;;18.40;28.61;99549.19;5011984;28;20230;-90
2022/04/14 10:09:54;;;;;;;15.17;6.97;;;;;;;17.01;28.02;99302.84;5021928;28;20198;-91
2022/04/14 10:12:19;;;;;;;11.10;6.70;;;;;;;20.70;28.36;99873.28;5033063;28;20262;-88
2022/04/14 10:14:58;;;;;;;10.13;6.87;;;;;;;20.86;27.84;99877.72;5029481;28;20182;-89
2022/04/14 10:17:42;;;;;;;10.60;6.67;;;;;;;16.68;28.08;99266.47;5048384;28;20268;-89
2022/04/14 10:20:18;;;;;;;8.30;6.17;;;;;;;16.59;29.05;99294.44;5021199;28;20335;-92
2022/04/14 10:22:47;;;;;;;12.33;6.40;;;;;;;17.41;27.13;99375.13;5036206;28;20627;-92
2022/04/14 10:25:40;;;;;;;9.10;6.30;;;;;;;20.24;28.05;99890.75;5027507;28;20245;-92
2022/04/14 10:28:21;;;;;;;11.23;6.10;;;;;;;16.26;27.99;99201.84;5035056;28;20221;-90
2022/04/14 10:30:57;;;;;;;10.30;6.37;;;;;;;17.29;27.80;99341.66;5032050;28;20236;-90
2022/04/14 10:33:32;;;;;;;12.03;6.03;;;;;;;16.38;29.27;99235.25;5023947;28;20202;-89
2022/04/14 10:36:01;;;;;;;10.00;6.17;;;;;;;17.51;28.85;99357.38;4996388;28;20277;-91
2022/04/14 10:38:34;;;;;;;15.83;6.30;;;;;;;17.45;28.52;99338.50;4989886;28;20206;-92
2022/04/14 10:41:12;;;;;;;14.07;6.50;;;;;;;17.50;27.99;99278.00;5006079;28;20246;-91
2022/04/14 10:43:41;;;;;;;9.37;5.93;;;;;;;17.26;27.56;99223.91;5009020;28;20190;-89
2022/04/14 10:46:14;;;;;;;9.00;5.90;;;;;;;17.19;27.21;99230.66;5001115;28;20214;-89
2022/04/14 10:48:42;;;;;;;10.23;5.70;;;;;;;17.82;27.35;99306.66;5015653;28;20195;-91
2022/04/14 10:51:13;;;;;;;9.10;5.40;;;;;;;20.67;26.46;99752.31;5000458;28;20222;-91
2022/04/14 10:53:57;;;;;;;8.70;6.07;;;;;;;21.42;26.72;99853.38;5012259;28;20210;-91
2022/04/14 10:56:44;;;;;;;9.60;6.07;;;;;;;21.47;26.77;99846.53;5004411;28;20718;-90
2022/04/14 10:59:44;;;;;;;9.40;5.60;;;;;;;21.31;25.81;99847.28;5002370;28;20188;-89
2022/04/14 11:02:12;;;;;;;6.73;5.27;;;;;;;19.00;26.03;99493.59;4991546;28;20210;-92
2022/04/14 11:04:41;;;;;;;8.03;4.97;;;;;;;20.99;24.25;99851.25;5008825;28;20261;-90
2022/04/14 11:07:18;;;;;;;8.63;5.10;;;;;;;16.90;24.77;99240.44;5007830;28;20210;-90
2022/04/14 11:09:45;;;;;;;9.40;5.10;;;;;;;19.73;25.17;99661.31;4995274;28;20222;-90
2022/04/14 11:12:41;;;;;;;8.03;5.27;;;;;;;20.83;25.25;99841.66;5005096;28;20218;-89
2022/04/14 11:15:12;;;;;;;8.07;5.33;;;;;;;19.29;25.46;99640.22;5046982;28;20247;-90
2022/04/14 11:17:38;;;;;;;10.27;5.13;;;;;;;20.53;25.55;99840.50;5064608;28;20196;-89
2022/04/14 11:20:30;;;;;;;12.07;5.13;;;;;;;20.83;24.17;99827.09;5039755;28;20181;-88
2022/04/14 11:23:15;;;;;;;8.63;4.77;;;;;;;21.04;24.09;99829.84;4997664;28;20218;-90
2022/04/14 11:25:43;;;;;;;6.50;4.70;;;;;;;20.10;23.58;99711.44;4997546;28;20273;-89
2022/04/14 11:28:27;;;;;;;7.07;4.50;;;;;;;17.95;23.82;99385.38;4986670;28;20725;-89
2022/04/14 11:31:18;;;;;;;6.20;5.13;;;;;;;20.90;24.63;99822.88;4998630;28;20194;-89
2022/04/14 11:33:45;;;;;;;7.30;4.93;;;;;;;17.42;24.60;99285.56;4990919;28;20194;-89
2022/04/14 11:36:26;;;;;;;8.80;4.87;;;;;;;21.10;24.42;99817.06;4991777;28;20295;-92
2022/04/14 11:39:05;;;;;;;9.90;5.07;;;;;;;18.84;23.99;99361.69;4994547;28;20744;-89
2022/04/14 11:41:38;;;;;;;8.37;4.80;;;;;;;21.98;23.82;99814.22;4983715;28;20280;-88
2022/04/14 11:44:06;;;;;;;6.60;4.60;;;;;;;19.08;23.60;99273.84;4985741;28;20195;-88
2022/04/14 11:46:34;;;;;;;8.10;5.10;;;;;;;20.58;23.56;99475.25;4985296;28;20215;-90
2022/04/14 11:49:00;;;;;;;8.50;5.07;;;;;;;20.03;22.49;99253.84;5005340;28;20219;-90
2022/04/14 11:51:29;;;;;;;7.33;4.60;;;;;;;20.57;21.87;99252.31;4991059;28;20298;-89
2022/04/14 11:53:56;;;;;;;8.90;4.37;;;;;;;22.03;21.28;99418.03;4990480;28;20223;-91
2022/04/14 11:56:25;;;;;;;6.73;4.57;;;;;;;22.95;21.37;99533.00;4996724;28;20245;-90
2022/04/14 11:58:53;;;;;;;7.03;4.80;;;;;;;23.75;20.87;99605.00;4996398;28;20189;-89
2022/04/14 12:01:20;;;;;;;8.10;4.03;;;;;;;21.06;21.09;99273.78;5053980;28;20236;-90
2022/04/14 12:03:46;;;;;;;6.60;4.37;;;;;;;21.82;20.69;99289.97;5059907;28;20589;-89
2022/04/14 12:06:16;;;;;;;7.55;4.35;;;;;;;22.27;20.30;99291.56;5079765;28;20169;-89
2022/04/14 12:08:54;;;;;;;4.88;4.05;;;;;;;21.76;19.50;99176.59;5061621;28;20614;-90
2022/04/14 12:11:20;;;;;;;4.60;3.70;;;;;;;23.91;18.93;99565.25;5070147;28;20192;-89
2022/04/14 12:13:46;;;;;;;6.35;4.18;;;;;;;24.53;18.72;99572.53;5042674;28;20184;-89
2022/04/14 12:16:14;;;;;;;6.25;4.28;;;;;;;23.92;18.87;99378.16;5045757;28;20204;-94
2022/04/14 12:18:41;;;;;;;6.80;4.65;;;;;;;24.61;18.88;99531.88;5051789;28;20252;-89
2022/04/14 12:21:16;;;;;;;6.85;4.88;;;;;;;26.09;18.67;99794.59;5051882;28;20191;-90
2022/04/14 12:23:48;;;;;;;5.30;4.75;;;;;;;24.83;18.46;99489.31;5048574;28;20194;-92
2022/04/14 12:26:14;;;;;;;6.68;4.32;;;;;;;24.67;17.87;99269.44;5079295;28;20176;-90
2022/04/14 12:28:40;;;;;;;5.60;4.55;;;;;;;27.48;18.11;99782.09;5055002;28;20192;-90
2022/04/14 12:31:10;;;;;;;5.70;4.03;;;;;;;25.54;17.23;99332.81;5060000;28;20191;-89
2022/04/14 12:33:36;;;;;;;5.32;4.00;;;;;;;27.78;17.47;99595.00;5066567;28;20184;-89
2022/04/14 12:36:10;;;;;;;11.38;6.22;;;;;;;28.55;17.63;99775.53;5046897;28;20209;-89
2022/04/14 12:38:47;;;;;;;5.68;4.00;;;;;;;27.45;17.23;99573.19;5046687;28;20242;-90
2022/04/14 12:41:20;;;;;;;9.43;4.25;;;;;;;26.48;17.52;99431.41;5049767;28;20191;-88
2022/04/14 12:43:51;;;;;;;9.45;4.20;;;;;;;27.00;17.92;99575.00;5062324;28;20230;-88
2022/04/14 12:46:27;;;;;;;4.30;3.72;;;;;;;27.91;17.54;99750.00;5045978;28;20212;-89
2022/04/14 12:49:31;;;;;;;4.90;3.90;;;;;;;25.42;17.99;99280.28;5039980;28;20249;-89
2022/04/14 12:52:01;;;;;;;6.22;3.80;;;;;;;25.59;17.47;99218.63;5009985;28;20225;-89
2022/04/14 12:54:27;;;;;;;5.45;3.72;;;;;;;26.85;16.77;99305.06;4989397;28;20220;-88
2022/04/14 12:57:07;;;;;;;7.53;3.83;;;;;;;26.78;16.61;99270.56;4985291;28;20206;-90
2022/04/14 12:59:34;;;;;;;5.28;3.63;;;;;;;29.48;16.46;99733.22;5005349;28;20191;-90
2022/04/14 13:02:06;;;;;;;6.53;3.90;;;;;;;28.21;17.26;99610.53;5011764;28;20201;-89
2022/04/14 13:04:36;;;;;;;5.72;3.70;;;;;;;27.62;16.70;99545.06;5005167;28;20216;-89
2022/04/14 13:07:05;;;;;;;5.85;3.90;;;;;;;27.89;16.89;99522.75;4992828;28;20226;-90
2022/04/14 13:09:31;;;;;;;6.28;3.70;;;;;;;28.28;16.75;99429.78;4990924;28;20287;-89
2022/04/14 13:11:57;;;;;;;5.30;3.50;;;;;;;26.24;16.49;99249.28;4988067;28;20194;-89
2022/04/14 13:14:25;;;;;;;5.47;3.80;;;;;;;26.13;17.00;99250.34;4998562;28;20368;-91
2022/04/14 13:16:53;;;;;;;4.75;3.60;;;;;;;27.45;16.07;99410.22;4995599;28;20485;-90
2022/04/14 13:19:19;;;;;;;7.75;4.30;;;;;;;28.51;15.80;99472.50;4985801;28;20195;-90
2022/04/14 13:21:45;;;;;;;6.80;3.92;;;;;;;26.87;16.21;99408.06;4991053;28;20960;-90
2022/04/14 13:24:11;;;;;;;6.15;4.13;;;;;;;25.02;16.17;99065.09;4979534;28;20290;-89
2022/04/14 13:26:40;;;;;;;9.05;3.90;;;;;;;26.71;16.36;99403.19;4991062;28;20215;-90
2022/04/14 13:29:06;;;;;;;6.50;3.90;;;;;;;25.97;16.79;99252.44;4998513;28;20307;-90
2022/04/14 13:31:31;;;;;;;5.65;3.83;;;;;;;25.90;16.47;99147.09;5008139;28;20680;-90
2022/04/14 13:33:57;;;;;;;6.13;3.63;;;;;;;27.11;15.87;99265.44;5005807;28;20219;-91
2022/04/14 13:36:23;;;;;;;8.43;3.78;;;;;;;26.68;16.26;99244.81;5006671;28;20198;-91
2022/04/14 13:38:51;;;;;;;5.93;3.60;;;;;;;25.82;16.32;99233.75;5009685;28;20266;-91
2022/04/14 13:41:20;;;;;;;6.20;3.78;;;;;;;29.43;16.24;99742.91;5004787;28;20293;-89
2022/04/14 13:43:46;;;;;;;6.78;3.70;;;;;;;28.58;15.51;99415.88;4987161;28;20199;-91
2022/04/14 13:46:11;;;;;;;5.57;3.90;;;;;;;26.59;16.07;99173.16;4984740;28;20261;-89
2022/04/14 13:48:37;;;;;;;4.60;3.42;;;;;;;28.05;16.64;99461.63;5002452;28;20219;-90
2022/04/14 13:51:03;;;;;;;5.60;3.88;;;;;;;27.02;16.61;99219.75;5023862;28;20195;-89
2022/04/14 13:53:29;;;;;;;11.75;3.65;;;;;;;26.30;17.20;99249.16;5007515;28;20267;-91
2022/04/14 13:55:55;;;;;;;5.68;3.90;;;;;;;27.61;16.46;99212.13;5003862;28;20288;-90
2022/04/14 13:58:45;;;;;;;5.05;3.88;;;;;;;30.38;15.97;99596.44;5003738;28;20195;-93
2022/04/14 14:01:14;;;;;;;5.03;3.90;;;;;;;28.03;15.60;99135.44;5051640;28;20201;-93
2022/04/14 14:03:40;;;;;;;6.50;3.33;;;;;;;29.44;15.48;99233.25;5041892;28;20216;-90
2022/04/14 14:06:06;;;;;;;5.47;3.72;;;;;;;29.24;14.88;99183.53;5050505;28;20210;-90
2022/04/14 14:08:32;;;;;;;6.90;4.03;;;;;;;28.87;15.30;99154.41;5051727;28;20195;-91
2022/04/14 14:10:57;;;;;;;5.20;4.22;;;;;;;28.25;16.40;99213.72;5052542;28;20204;-91
2022/04/14 14:13:26;;;;;;;5.38;4.10;;;;;;;27.45;16.66;99157.94;5069659;28;20781;-91
2022/04/14 14:15:55;;;;;;;4.90;3.88;;;;;;;28.42;15.79;99217.53;5026779;28;20241;-93
2022/04/14 14:18:21;;;;;;;4.80;3.65;;;;;;;29.22;15.60;99298.38;5033027;28;20179;-90
2022/04/14 14:20:54;;;;;;;7.03;4.10;;;;;;;30.21;16.45;99567.38;5038271;28;20209;-93
2022/04/14 14:23:20;;;;;;;7.50;4.45;;;;;;;29.17;16.70;99422.78;5038135;28;20186;-89
2022/04/14 14:25:56;;;;;;;7.00;4.50;;;;;;;28.63;16.75;99188.19;5033450;28;20223;-92
2022/04/14 14:28:35;;;;;;;6.55;4.63;;;;;;;28.23;16.79;99164.31;5063807;28;20196;-91
2022/04/14 14:31:01;;;;;;;5.40;4.45;;;;;;;32.21;16.55;99721.53;5049429;28;20184;-92
2022/04/14 14:33:30;;;;;;;6.00;4.25;;;;;;;31.91;16.39;99703.47;5052389;28;20178;-93
2022/04/14 14:35:55;;;;;;;5.53;3.58;;;;;;;29.25;16.81;99247.84;5045257;28;20189;-92
2022/04/14 14:38:21;;;;;;;7.55;3.58;;;;;;;29.86;16.36;99183.06;5046003;28;20199;-92
2022/04/14 14:41:07;;;;;;;5.90;4.25;;;;;;;29.47;16.23;99160.09;5072590;28;20188;-92
2022/04/14 14:43:47;;;;;;;6.38;3.95;;;;;;;29.40;16.21;99153.38;5069227;28;20212;-93
2022/04/14 14:46:14;;;;;;;4.95;3.60;;;;;;;29.07;16.52;99267.53;5072406;23;20271;-92
2022/04/14 14:48:42;;;;;;;5.20;3.45;;;;;;;28.89;17.94;99713.06;5085684;28;20171;-91
2022/04/14 14:51:16;;;;;;;6.78;3.92;;;;;;;26.09;18.28;99109.47;5079853;28;20197;-91
2022/04/14 14:53:50;;;;;;;4.97;3.90;;;;;;;27.82;17.83;99230.59;5083195;28;20178;-91
2022/04/14 14:56:20;;;;;;;5.93;3.80;;;;;;;28.64;17.11;99189.06;5086526;28;20192;-91
2022/04/14 15:01:51;;;;;;;4.25;3.50;;;;;;;31.58;16.94;99699.47;5084961;28;20242;-91
2022/04/14 15:04:27;;;;;;;6.82;3.80;;;;;;;28.09;17.41;99208.13;5084490;28;20220;-91
2022/04/14 15:06:56;;;;;;;5.93;3.53;;;;;;;30.26;16.36;99371.28;5068611;28;20673;-90
2022/04/14 15:09:25;;;;;;;4.53;3.30;;;;;;;32.77;16.63;99707.03;5067104;28;20199;-91
2022/04/14 15:12:05;;;;;;;5.28;3.72;;;;;;;33.44;16.22;99707.63;5086596;28;20207;-91
2022/04/14 15:14:31;;;;;;;5.88;3.50;;;;;;;30.59;16.51;99226.31;5070278;23;20244;-91
2022/04/14 15:17:08;;;;;;;4.95;3.33;;;;;;;32.90;16.43;99718.72;5040585;28;20271;-91
2022/04/14 15:19:37;;;;;;;5.28;3.50;;;;;;;29.97;16.38;99178.28;5061627;28;20465;-92
2022/04/14 15:22:05;;;;;;;4.80;3.33;;;;;;;29.97;16.48;99213.03;5048373;28;20187;-93
2022/04/14 15:25:00;;;;;;;4.57;3.55;;;;;;;29.72;16.18;99167.88;5056473;28;20244;-91
2022/04/14 15:27:26;;;;;;;5.47;3.42;;;;;;;29.02;17.23;99201.66;5048401;28;20223;-91
2022/04/14 15:29:52;;;;;;;6.10;3.63;;;;;;;30.15;17.28;99535.38;5052710;28;20700;-91
2022/04/14 15:32:23;;;;;;;7.38;4.07;;;;;;;30.45;17.88;99696.41;5050023;28;20294;-92
2022/04/14 15:34:54;;;;;;;6.90;3.80;;;;;;;28.55;18.04;99426.38;5036134;28;20191;-92
2022/04/14 15:37:20;;;;;;;6.22;3.30;;;;;;;28.09;17.61;99153.47;5064340;28;20200;-90
2022/04/14 15:39:48;;;;;;;5.47;3.60;;;;;;;28.80;18.70;99701.09;5045234;28;20182;-91
2022/04/14 15:42:17;;;;;;;5.40;3.75;;;;;;;22.81;21.15;99149.28;5054851;28;20284;-91
2022/04/14 15:44:43;;;;;;;6.93;3.70;;;;;;;22.38;22.08;99336.22;5050146;28;20241;-89
2022/04/14 15:47:09;;;;;;;4.95;3.65;;;;;;;21.15;23.04;99235.19;5054659;28;20245;-88
2022/04/14 15:49:53;;;;;;;5.87;3.77;;;;;;;21.40;23.66;99480.72;5049859;28;20251;-93
2022/04/14 15:52:18;;;;;;;6.57;4.03;;;;;;;20.74;23.93;99368.94;5051917;28;20494;-90
2022/04/14 15:54:44;;;;;;;5.20;3.70;;;;;;;20.34;23.82;99326.84;5052758;28;20189;-90
2022/04/14 15:57:09;;;;;;;4.07;3.67;;;;;;;18.91;23.88;99088.13;5041236;28;20722;-87
2022/04/14 15:59:38;;;;;;;6.03;3.77;;;;;;;20.09;24.01;99324.97;5048856;28;20192;-89
2022/04/14 16:02:04;;;;;;;5.53;3.47;;;;;;;20.49;24.33;99488.91;5073328;28;20157;-89
2022/04/14 16:04:29;;;;;;;5.37;3.60;;;;;;;18.69;24.63;99245.28;5054168;28;20254;-89
2022/04/14 16:06:55;;;;;;;5.75;3.80;;;;;;;19.86;25.06;99435.34;5074094;28;20502;-90
2022/04/14 16:09:21;;;;;;;5.53;4.20;;;;;;;19.93;25.04;99492.81;5049824;28;20461;-88
2022/04/14 16:12:04;;;;;;;10.87;4.50;;;;;;;19.09;25.54;99361.97;5056267;28;20236;-90
2022/04/14 16:14:31;;;;;;;6.97;4.20;;;;;;;17.05;25.66;99046.31;5042335;28;20213;-90
2022/04/14 16:16:57;;;;;;;7.40;4.40;;;;;;;18.96;26.05;99368.66;5041961;28;20551;-90
2022/04/14 16:19:23;;;;;;;5.70;3.93;;;;;;;20.42;25.92;99622.63;5045425;28;20180;-89
2022/04/14 16:21:49;;;;;;;8.17;3.97;;;;;;;17.76;26.23;99217.81;5045087;28;20178;-88
2022/04/14 16:24:18;;;;;;;8.27;4.60;;;;;;;17.09;26.64;99142.69;5065785;28;20162;-90
2022/04/14 16:26:49;;;;;;;9.73;4.10;;;;;;;18.79;26.58;99457.41;5064198;28;20193;-90
2022/04/14 16:29:16;;;;;;;7.20;3.97;;;;;;;17.66;27.00;99285.09;5066991;28;20173;-90
2022/04/14 16:31:42;;;;;;;6.33;4.33;;;;;;;17.36;27.24;99233.47;5066174;28;20177;-89
2022/04/14 16:34:07;;;;;;;7.35;4.57;;;;;;;18.56;26.95;99449.44;5068763;28;20802;-90
2022/04/14 16:36:36;;;;;;;9.75;4.70;;;;;;;17.61;27.00;99323.44;5068565;28;20487;-90
2022/04/14 16:39:01;;;;;;;6.80;4.20;;;;;;;16.59;26.94;99158.97;5044815;28;20411;-89
2022/04/14 16:41:27;;;;;;;6.90;3.53;;;;;;;16.36;26.52;99153.47;5040166;28;20177;-89
2022/04/14 16:43:52;;;;;;;7.63;4.30;;;;;;;16.09;27.05;99147.03;5038245;28;20197;-88
2022/04/14 16:46:17;;;;;;;8.20;3.73;;;;;;;17.43;26.87;99391.38;5059595;28;20174;-88
2022/04/14 16:48:43;;;;;;;6.33;3.53;;;;;;;17.77;26.91;99437.19;5040469;28;20268;-90
2022/04/14 16:51:10;;;;;;;8.20;3.73;;;;;;;16.05;27.01;99173.31;5042451;28;20176;-88
2022/04/14 16:53:36;;;;;;;7.67;3.90;;;;;;;19.13;27.49;99702.47;5040252;28;20165;-88
2022/04/14 16:56:03;;;;;;;8.70;4.10;;;;;;;19.01;27.81;99710.00;5039447;28;20169;-89
2022/04/14 16:58:46;;;;;;;7.00;4.20;;;;;;;16.89;27.74;99371.66;5092443;27;20523;-88
2022/04/14 17:01:11;;;;;;;11.87;5.13;;;;;;;17.53;27.93;99495.63;5127182;27;20240;-88
2022/04/14 17:03:37;;;;;;;11.53;5.50;;;;;;;17.85;28.25;99567.94;5089855;28;20195;-89
2022/04/14 17:06:03;;;;;;;11.70;4.87;;;;;;;16.03;28.08;99300.13;5092338;28;20189;-87
2022/04/14 17:08:28;;;;;;;9.10;4.70;;;;;;;15.35;28.50;99203.38;5089484;28;20274;-87
2022/04/14 17:10:54;;;;;;;11.17;5.20;;;;;;;16.92;28.48;99491.94;5090997;28;20199;-90
2022/04/14 17:13:19;;;;;;;9.53;5.50;;;;;;;15.45;28.27;99247.81;5095070;28;20172;-89
2022/04/14 17:15:45;;;;;;;10.53;5.83;;;;;;;16.13;28.42;99369.28;5091292;28;20217;-89
2022/04/14 17:18:11;;;;;;;13.27;5.33;;;;;;;18.19;28.72;99724.84;5090290;28;20208;-89
2022/04/14 17:20:36;;;;;;;12.07;5.43;;;;;;;16.83;29.05;99529.25;5090680;28;20183;-88
2022/04/14 17:25:47;;;;;;;15.40;5.90;;;;;;;17.11;29.40;99605.75;5092660;28;20175;-88
2022/04/14 17:28:12;;;;;;;16.97;6.50;;;;;;;14.47;29.65;99152.09;5089738;28;20168;-88
2022/04/14 17:30:38;;;;;;;19.63;8.60;;;;;;;15.70;30.40;99410.91;5092951;28;20168;-90
2022/04/14 17:33:04;;;;;;;19.17;10.00;;;;;;;15.61;30.55;99400.47;5094358;28;20250;-87
2022/04/14 17:35:29;;;;;;;32.00;11.50;;;;;;;15.29;30.57;99368.19;5089432;28;20680;-89
2022/04/14 17:37:56;;;;;;;24.90;12.03;;;;;;;17.68;30.69;99760.56;5089500;28;20203;-88
2022/04/14 17:40:21;;;;;;;29.07;13.30;;;;;;;16.11;30.83;99518.22;5088785;28;20176;-88
2022/04/14 17:42:49;;;;;;;31.73;14.63;;;;;;;15.99;31.02;99505.19;5090375;28;20168;-88
2022/04/14 17:45:16;;;;;;;32.67;14.43;;;;;;;17.46;31.11;99760.88;5090855;28;20267;-89
2022/04/14 17:47:43;;;;;;;33.67;13.93;;;;;;;15.43;31.38;99439.97;5080009;28;20177;-89
2022/04/14 17:50:11;;;;;;;27.60;13.37;;;;;;;17.38;31.36;99805.94;5068672;28;20268;-88
2022/04/14 17:52:37;;;;;;;32.50;13.80;;;;;;;16.80;31.89;99690.28;5070743;28;20245;-89
2022/04/14 17:55:03;;;;;;;32.90;13.80;;;;;;;15.55;31.81;99489.63;5069745;28;20216;-88
2022/04/14 17:57:29;;;;;;;31.97;12.97;;;;;;;13.99;32.00;99239.91;5069027;28;20229;-88
2022/04/14 17:59:54;;;;;;;28.57;13.60;;;;;;;17.14;31.99;99800.22;5069052;28;20168;-88
2022/04/14 18:02:22;;;;;;;31.87;14.20;;;;;;;15.35;32.03;99506.09;5069448;28;20184;-88
2022/04/14 18:04:48;;;;;;;38.03;13.93;;;;;;;15.77;31.66;99585.47;5069546;28;20180;-89
2022/04/14 18:07:13;;;;;;;36.73;21.67;;;;;;;13.85;32.29;99262.41;5069785;28;20177;-89
2022/04/14 18:09:39;;;;;;;34.27;16.37;;;;;;;15.81;32.43;99593.28;5060119;28;20174;-88
2022/04/14 18:12:05;;;;;;;32.47;14.90;;;;;;;16.20;32.31;99684.50;5057601;28;20660;-88
2022/04/14 18:14:30;;;;;;;31.50;15.67;;;;;;;15.28;32.48;99529.69;5057498;28;20227;-88
2022/04/14 18:16:55;;;;;;;32.27;15.10;;;;;;;16.77;32.59;99801.03;5062578;28;20212;-88
2022/04/14 18:19:24;;;;;;;32.73;13.90;;;;;;;13.56;32.66;99242.94;5062532;28;20261;-88
2022/04/14 18:21:50;;;;;;;34.63;15.07;;;;;;;12.15;33.10;99022.66;5063110;28;20169;-92
2022/04/14 18:24:15;;;;;;;37.17;15.70;;;;;;;15.34;33.39;99593.66;5062390;28;20193;-88
2022/04/14 18:26:41;;;;;;;37.23;15.07;;;;;;;14.39;33.14;99413.38;5063529;28;20165;-88
2022/04/14 18:29:06;;;;;;;35.10;14.47;;;;;;;13.20;33.61;99247.78;5060630;28;20250;-89
2022/04/14 18:31:33;;;;;;;26.43;12.13;;;;;;;14.57;33.75;99481.81;5063295;28;20169;-89
2022/04/14 18:33:59;;;;;;;25.00;11.67;;;;;;;12.89;33.98;99192.56;5055778;28;20174;-89
2022/04/14 18:36:24;;;;;;;25.63;11.93;;;;;;;14.18;33.73;99426.31;5055886;28;20231;-87
2022/04/14 18:38:53;;;;;;;24.90;12.27;;;;;;;12.98;34.38;99228.44;5057344;28;20170;-88
2022/04/14 18:41:19;;;;;;;21.87;10.13;;;;;;;16.39;34.61;99801.69;5055401;28;20162;-88
2022/04/14 18:43:44;;;;;;;21.67;10.90;;;;;;;13.88;35.38;99420.28;5056789;28;20197;-89
2022/04/14 18:46:10;;;;;;;21.27;10.07;;;;;;;14.16;35.37;99460.19;5057012;28;20205;-89
2022/04/14 18:48:35;;;;;;;19.20;8.97;;;;;;;15.94;34.75;99763.84;5029845;28;20212;-87
2022/04/14 18:51:00;;;;;;;16.57;7.80;;;;;;;14.48;34.99;99525.69;5076732;28;20696;-87
2022/04/14 18:53:26;;;;;;;12.40;7.07;;;;;;;13.58;35.04;99382.03;5076917;28;20172;-87
2022/04/14 18:55:52;;;;;;;11.97;7.20;;;;;;;13.17;35.33;99306.13;5076083;28;20176;-88
2022/04/14 18:58:17;;;;;;;13.87;6.77;;;;;;;14.37;35.38;99516.88;5074473;28;20591;-89
2022/04/14 19:00:43;;;;;;;12.80;6.77;;;;;;;16.08;35.36;99807.63;5074879;28;20180;-88
2022/04/14 19:03:09;;;;;;;16.37;6.23;;;;;;;15.31;35.72;99690.50;5075001;28;20306;-88
2022/04/14 19:05:36;;;;;;;10.17;5.70;;;;;;;13.44;36.22;99401.09;5073839;28;20176;-87
2022/04/14 19:08:03;;;;;;;14.77;5.17;;;;;;;14.02;36.08;99489.44;5077669;28;20180;-88
2022/04/14 19:10:29;;;;;;;8.53;4.67;;;;;;;14.57;36.21;99584.59;5075867;28;20172;-85
2022/04/14 19:12:55;;;;;;;11.53;4.90;;;;;;;15.37;36.24;99736.59;5077158;28;20628;-87
2022/04/14 19:15:21;;;;;;;9.47;4.60;;;;;;;15.70;36.18;99796.31;5081142;28;20148;-88
2022/04/14 19:17:47;;;;;;;11.37;4.80;;;;;;;15.81;36.16;99819.63;5078566;28;20700;-90
2022/04/14 19:20:12;;;;;;;9.07;5.27;;;;;;;15.77;36.46;99830.53;5076216;28;20169;-89
2022/04/14 19:22:38;;;;;;;12.73;4.80;;;;;;;11.99;36.75;99187.88;5079741;28;20283;-89
2022/04/14 19:25:08;;;;;;;8.77;4.90;;;;;;;15.81;36.67;99828.16;5060992;28;20185;-88
2022/04/14 19:27:38;;;;;;;10.77;5.17;;;;;;;13.74;36.55;99505.50;5062295;28;20153;-87
2022/04/14 19:30:05;;;;;;;10.87;5.63;;;;;;;14.94;36.84;99738.66;5067866;28;20184;-88
2022/04/14 19:32:31;;;;;;;55.33;29.10;;;;;;;15.32;37.58;99842.75;5085267;28;20173;-89
2022/04/14 19:34:56;;;;;;;51.80;27.17;;;;;;;11.77;38.15;99254.75;5090281;28;20183;-88
2022/04/14 19:37:22;;;;;;;103.97;46.30;;;;;;;13.74;38.93;99612.38;5088964;28;20222;-88
2022/04/14 19:39:47;;;;;;;91.83;43.17;;;;;;;13.62;39.33;99655.22;5075194;28;20184;-89
2022/04/14 19:42:13;;;;;;;85.37;38.57;;;;;;;14.04;39.10;99701.63;5075960;28;20309;-88
2022/04/14 19:44:39;;;;;;;72.23;38.90;;;;;;;14.82;39.67;99865.69;5077470;28;20168;-88
2022/04/14 19:47:04;;;;;;;88.43;44.03;;;;;;;14.69;40.20;99869.53;5080550;28;20263;-89
2022/04/14 19:49:30;;;;;;;47.77;25.17;;;;;;;12.93;40.60;99549.25;5021900;28;20261;-89
2022/04/14 19:51:55;;;;;;;19.07;9.90;;;;;;;12.99;40.60;99579.97;5035152;28;20235;-88
2022/04/14 19:54:25;;;;;;;15.97;8.40;;;;;;;13.90;41.35;99746.13;5034515;28;20181;-90
2022/04/14 19:56:51;;;;;;;14.17;8.87;;;;;;;11.02;41.83;99267.88;5035761;28;20225;-87
2022/04/14 19:59:17;;;;;;;18.77;8.97;;;;;;;13.74;41.81;99726.00;5034747;28;20235;-89
2022/04/14 20:01:43;;;;;;;16.50;8.50;;;;;;;13.70;42.04;99719.06;5034739;28;20194;-89
2022/04/14 20:04:08;;;;;;;14.03;8.53;;;;;;;12.99;42.29;99628.25;5035531;28;21033;-89
2022/04/14 20:06:34;;;;;;;16.23;8.63;;;;;;;14.32;42.90;99836.78;5035791;28;20166;-88
2022/04/14 20:09:00;;;;;;;14.07;8.43;;;;;;;13.83;42.95;99780.66;5035559;28;20171;-88
2022/04/14 20:11:26;;;;;;;17.60;10.90;;;;;;;13.36;43.59;99691.53;5035373;28;20188;-88
2022/04/14 20:13:51;;;;;;;15.30;8.83;;;;;;;13.23;43.54;99699.50;5035295;28;20348;-90
2022/04/14 20:16:17;;;;;;;14.77;8.30;;;;;;;12.74;43.90;99630.69;5033947;28;20178;-87
2022/04/14 20:18:43;;;;;;;15.47;8.13;;;;;;;13.15;43.98;99709.41;5036342;28;20221;-88
2022/04/14 20:21:08;;;;;;;17.03;8.77;;;;;;;12.94;44.54;99655.16;5036666;28;20181;-88
2022/04/14 20:23:34;;;;;;;20.67;10.83;;;;;;;12.42;44.22;99598.94;5036822;28;20198;-88
2022/04/14 20:25:59;;;;;;;32.43;18.37;;;;;;;10.65;45.14;99343.16;5034497;28;20166;-89
2022/04/14 20:28:25;;;;;;;37.50;20.73;;;;;;;11.92;45.14;99561.38;5024893;28;20260;-88
2022/04/14 20:30:50;;;;;;;47.57;22.03;;;;;;;12.86;45.33;99748.88;5018884;28;20226;-89
2022/04/14 20:33:16;;;;;;;40.83;19.57;;;;;;;11.12;45.74;99499.66;5031326;28;20205;-88
2022/04/14 20:35:43;;;;;;;38.93;19.77;;;;;;;10.71;45.91;99461.53;5034274;28;20209;-89
2022/04/14 20:38:09;;;;;;;61.60;30.83;;;;;;;10.82;46.41;99481.47;5033666;28;20198;-88
2022/04/14 20:40:35;;;;;;;104.00;52.17;;;;;;;11.02;46.75;99500.91;5032950;28;20630;-88
2022/04/14 20:43:00;;;;;;;94.53;46.40;;;;;;;9.70;46.93;99299.28;5049736;28;20194;-89
2022/04/14 20:45:26;;;;;;;80.93;37.83;;;;;;;9.64;47.26;99286.34;5035224;28;20614;-88
2022/04/14 20:47:51;;;;;;;93.47;31.37;;;;;;;9.75;48.03;99312.97;5036463;28;20253;-87
2022/04/14 20:50:16;;;;;;;44.93;18.57;;;;;;;10.52;48.37;99464.94;5037382;28;20272;-88
2022/04/14 20:52:42;;;;;;;22.73;11.60;;;;;;;11.06;49.29;99540.78;5041961;28;20865;-88
2022/04/14 20:55:08;;;;;;;20.87;11.20;;;;;;;13.00;49.47;99881.59;5049563;28;20178;-88
2022/04/14 20:57:34;;;;;;;20.20;11.10;;;;;;;11.16;49.83;99593.59;5046031;28;20234;-88
2022/04/14 20:59:59;;;;;;;16.87;9.00;;;;;;;11.92;50.62;99789.69;5041817;28;20174;-89
2022/04/14 21:02:25;;;;;;;15.13;7.93;;;;;;;10.61;50.72;99564.03;5040574;28;20208;-89
2022/04/14 21:04:51;;;;;;;14.33;7.90;;;;;;;10.01;51.08;99484.47;5045371;28;20230;-87
2022/04/14 21:07:16;;;;;;;11.93;7.27;;;;;;;11.53;51.38;99762.53;5042468;28;20173;-88
2022/04/14 21:09:42;;;;;;;11.77;7.00;;;;;;;12.22;51.28;99895.13;5042322;28;20172;-89
2022/04/14 21:12:08;;;;;;;11.97;6.97;;;;;;;9.80;51.83;99512.94;5040907;28;20178;-88
2022/04/14 21:14:33;;;;;;;11.63;7.47;;;;;;;10.44;52.20;99674.63;5041960;28;20202;-88
2022/04/14 21:16:59;;;;;;;13.00;7.53;;;;;;;10.26;53.05;99656.03;5040648;28;20185;-88
2022/04/14 21:19:26;;;;;;;15.20;7.63;;;;;;;10.74;53.67;99752.88;5043406;28;20177;-88
2022/04/14 21:21:57;;;;;;;11.60;7.53;;;;;;;9.97;54.24;99644.44;5037606;28;20177;-88
2022/04/14 21:24:22;;;;;;;12.70;8.47;;;;;;;11.49;54.64;99913.66;5037054;28;20212;-88